sensor_id;sensor_type;location;lat;lon;timestamp;P1;durP1;ratioP1;P2;durP2;ratioP2
66628;SDS011;53532;53.084;6.352;2023-03-01T00:00:38;47.43;;;29.70;;
66628;SDS011;53532;53.084;6.352;2023-03-01T00:03:04;50.30;;;30.37;;
66628;SDS011;53532;53.084;6.352;2023-03-01T00:05:31;50.47;;;31.43;;
66628;SDS011;53532;53.084;6.352;2023-03-01T00:07:57;516.97;;;69.27;;
66628;SDS011;53532;53.084;6.352;2023-03-01T00:10:23;482.07;;;56.10;;
66628;SDS011;53532;53.084;6.352;2023-03-01T00:12:49;351.30;;;52.70;;
66628;SDS011;53532;53.084;6.352;2023-03-01T00:15:15;107.10;;;31.83;;
66628;SDS011;53532;53.084;6.352;2023-03-01T00:17:43;97.73;;;32.90;;
66628;SDS011;53532;53.084;6.352;2023-03-01T00:20:09;125.63;;;33.60;;
66628;SDS011;53532;53.084;6.352;2023-03-01T00:22:36;126.97;;;32.17;;
66628;SDS011;53532;53.084;6.352;2023-03-01T00:25:02;41.77;;;27.90;;
66628;SDS011;53532;53.084;6.352;2023-03-01T00:27:29;40.10;;;27.13;;
66628;SDS011;53532;53.084;6.352;2023-03-01T00:29:57;41.63;;;28.37;;
66628;SDS011;53532;53.084;6.352;2023-03-01T00:32:23;45.07;;;29.23;;
66628;SDS011;53532;53.084;6.352;2023-03-01T00:34:51;43.60;;;28.83;;
66628;SDS011;53532;53.084;6.352;2023-03-01T00:37:20;36.03;;;25.97;;
66628;SDS011;53532;53.084;6.352;2023-03-01T00:39:46;39.20;;;26.77;;
66628;SDS011;53532;53.084;6.352;2023-03-01T00:42:12;75.97;;;34.47;;
66628;SDS011;53532;53.084;6.352;2023-03-01T00:44:38;189.77;;;43.93;;
66628;SDS011;53532;53.084;6.352;2023-03-01T00:47:05;84.00;;;37.40;;
66628;SDS011;53532;53.084;6.352;2023-03-01T00:49:31;74.23;;;36.07;;
66628;SDS011;53532;53.084;6.352;2023-03-01T00:51:58;50.73;;;32.13;;
66628;SDS011;53532;53.084;6.352;2023-03-01T00:54:24;49.73;;;32.10;;
66628;SDS011;53532;53.084;6.352;2023-03-01T00:56:51;51.97;;;33.73;;
66628;SDS011;53532;53.084;6.352;2023-03-01T00:59:17;53.87;;;32.90;;
66628;SDS011;53532;53.084;6.352;2023-03-01T01:01:43;245.47;;;49.03;;
66628;SDS011;53532;53.084;6.352;2023-03-01T01:04:10;161.33;;;34.97;;
66628;SDS011;53532;53.084;6.352;2023-03-01T01:06:38;102.73;;;32.30;;
66628;SDS011;53532;53.084;6.352;2023-03-01T01:09:06;67.33;;;32.70;;
66628;SDS011;53532;53.084;6.352;2023-03-01T01:11:33;64.57;;;33.23;;
66628;SDS011;53532;53.084;6.352;2023-03-01T01:14:02;74.87;;;33.90;;
66628;SDS011;53532;53.084;6.352;2023-03-01T01:16:28;133.20;;;36.70;;
66628;SDS011;53532;53.084;6.352;2023-03-01T01:18:55;161.37;;;39.40;;
66628;SDS011;53532;53.084;6.352;2023-03-01T01:21:22;167.80;;;37.30;;
66628;SDS011;53532;53.084;6.352;2023-03-01T01:23:48;126.17;;;35.07;;
66628;SDS011;53532;53.084;6.352;2023-03-01T01:26:17;174.20;;;38.60;;
66628;SDS011;53532;53.084;6.352;2023-03-01T01:28:43;219.50;;;39.73;;
66628;SDS011;53532;53.084;6.352;2023-03-01T01:31:10;74.80;;;31.67;;
66628;SDS011;53532;53.084;6.352;2023-03-01T01:33:36;100.13;;;34.37;;
66628;SDS011;53532;53.084;6.352;2023-03-01T01:36:03;91.43;;;34.00;;
66628;SDS011;53532;53.084;6.352;2023-03-01T01:38:29;120.10;;;37.20;;
66628;SDS011;53532;53.084;6.352;2023-03-01T01:40:55;250.70;;;48.07;;
66628;SDS011;53532;53.084;6.352;2023-03-01T01:43:24;254.03;;;49.30;;
66628;SDS011;53532;53.084;6.352;2023-03-01T01:45:50;148.10;;;42.37;;
66628;SDS011;53532;53.084;6.352;2023-03-01T01:48:18;328.63;;;61.27;;
66628;SDS011;53532;53.084;6.352;2023-03-01T01:50:45;198.67;;;48.47;;
66628;SDS011;53532;53.084;6.352;2023-03-01T01:53:14;173.27;;;46.17;;
66628;SDS011;53532;53.084;6.352;2023-03-01T01:55:41;97.67;;;40.07;;
66628;SDS011;53532;53.084;6.352;2023-03-01T01:58:09;132.57;;;39.80;;
66628;SDS011;53532;53.084;6.352;2023-03-01T02:00:38;105.40;;;36.57;;
66628;SDS011;53532;53.084;6.352;2023-03-01T02:03:04;173.97;;;43.30;;
66628;SDS011;53532;53.084;6.352;2023-03-01T02:05:33;136.83;;;40.70;;
66628;SDS011;53532;53.084;6.352;2023-03-01T02:08:01;67.23;;;33.93;;
66628;SDS011;53532;53.084;6.352;2023-03-01T02:10:28;101.83;;;38.20;;
66628;SDS011;53532;53.084;6.352;2023-03-01T02:12:54;130.37;;;41.90;;
66628;SDS011;53532;53.084;6.352;2023-03-01T02:15:23;121.90;;;40.53;;
66628;SDS011;53532;53.084;6.352;2023-03-01T02:17:53;157.37;;;45.67;;
66628;SDS011;53532;53.084;6.352;2023-03-01T02:20:21;116.23;;;42.23;;
66628;SDS011;53532;53.084;6.352;2023-03-01T02:22:49;123.87;;;44.03;;
66628;SDS011;53532;53.084;6.352;2023-03-01T02:25:23;81.80;;;34.33;;
66628;SDS011;53532;53.084;6.352;2023-03-01T02:27:52;109.47;;;37.97;;
66628;SDS011;53532;53.084;6.352;2023-03-01T02:30:22;115.50;;;39.33;;
66628;SDS011;53532;53.084;6.352;2023-03-01T02:32:48;87.90;;;36.80;;
66628;SDS011;53532;53.084;6.352;2023-03-01T02:35:15;87.23;;;36.67;;
66628;SDS011;53532;53.084;6.352;2023-03-01T02:37:48;91.90;;;34.93;;
66628;SDS011;53532;53.084;6.352;2023-03-01T02:40:15;95.40;;;35.37;;
66628;SDS011;53532;53.084;6.352;2023-03-01T02:42:43;82.63;;;36.00;;
66628;SDS011;53532;53.084;6.352;2023-03-01T02:45:11;69.20;;;33.57;;
66628;SDS011;53532;53.084;6.352;2023-03-01T02:47:39;72.23;;;35.20;;
66628;SDS011;53532;53.084;6.352;2023-03-01T02:50:10;61.63;;;33.70;;
66628;SDS011;53532;53.084;6.352;2023-03-01T02:52:41;63.57;;;31.60;;
66628;SDS011;53532;53.084;6.352;2023-03-01T02:55:11;57.67;;;31.48;;
66628;SDS011;53532;53.084;6.352;2023-03-01T02:57:38;57.67;;;33.37;;
66628;SDS011;53532;53.084;6.352;2023-03-01T03:00:06;60.67;;;31.77;;
66628;SDS011;53532;53.084;6.352;2023-03-01T03:02:33;69.40;;;33.20;;
66628;SDS011;53532;53.084;6.352;2023-03-01T03:05:05;68.57;;;32.13;;
66628;SDS011;53532;53.084;6.352;2023-03-01T03:07:33;93.20;;;36.27;;
66628;SDS011;53532;53.084;6.352;2023-03-01T03:09:59;115.03;;;37.73;;
66628;SDS011;53532;53.084;6.352;2023-03-01T03:12:26;58.43;;;32.00;;
66628;SDS011;53532;53.084;6.352;2023-03-01T03:14:52;67.37;;;33.73;;
66628;SDS011;53532;53.084;6.352;2023-03-01T03:17:18;86.67;;;34.87;;
66628;SDS011;53532;53.084;6.352;2023-03-01T03:19:44;82.30;;;35.97;;
66628;SDS011;53532;53.084;6.352;2023-03-01T03:22:12;59.40;;;29.60;;
66628;SDS011;53532;53.084;6.352;2023-03-01T03:24:38;83.57;;;30.60;;
66628;SDS011;53532;53.084;6.352;2023-03-01T03:27:05;79.07;;;32.63;;
66628;SDS011;53532;53.084;6.352;2023-03-01T03:29:31;75.83;;;33.70;;
66628;SDS011;53532;53.084;6.352;2023-03-01T03:31:57;102.30;;;35.73;;
66628;SDS011;53532;53.084;6.352;2023-03-01T03:34:24;76.50;;;33.70;;
66628;SDS011;53532;53.084;6.352;2023-03-01T03:36:52;65.40;;;32.30;;
66628;SDS011;53532;53.084;6.352;2023-03-01T03:39:23;88.47;;;35.55;;
66628;SDS011;53532;53.084;6.352;2023-03-01T03:41:49;59.97;;;31.40;;
66628;SDS011;53532;53.084;6.352;2023-03-01T03:44:15;61.73;;;32.67;;
66628;SDS011;53532;53.084;6.352;2023-03-01T03:46:41;135.30;;;37.23;;
66628;SDS011;53532;53.084;6.352;2023-03-01T03:49:07;137.03;;;35.67;;
66628;SDS011;53532;53.084;6.352;2023-03-01T03:51:34;122.10;;;35.87;;
66628;SDS011;53532;53.084;6.352;2023-03-01T03:54:00;99.17;;;34.07;;
66628;SDS011;53532;53.084;6.352;2023-03-01T03:56:27;97.17;;;36.70;;
66628;SDS011;53532;53.084;6.352;2023-03-01T03:58:53;78.67;;;33.77;;
66628;SDS011;53532;53.084;6.352;2023-03-01T04:01:20;147.63;;;43.57;;
66628;SDS011;53532;53.084;6.352;2023-03-01T04:03:46;247.23;;;49.50;;
66628;SDS011;53532;53.084;6.352;2023-03-01T04:06:12;113.63;;;36.23;;
66628;SDS011;53532;53.084;6.352;2023-03-01T04:08:40;437.03;;;59.80;;
66628;SDS011;53532;53.084;6.352;2023-03-01T04:11:06;105.60;;;35.87;;
66628;SDS011;53532;53.084;6.352;2023-03-01T04:13:52;93.17;;;35.07;;
66628;SDS011;53532;53.084;6.352;2023-03-01T04:16:19;121.87;;;36.27;;
66628;SDS011;53532;53.084;6.352;2023-03-01T04:18:45;67.97;;;32.57;;
66628;SDS011;53532;53.084;6.352;2023-03-01T04:21:11;80.83;;;33.03;;
66628;SDS011;53532;53.084;6.352;2023-03-01T04:23:38;80.80;;;34.23;;
66628;SDS011;53532;53.084;6.352;2023-03-01T04:26:05;71.30;;;32.73;;
66628;SDS011;53532;53.084;6.352;2023-03-01T04:28:33;88.17;;;34.70;;
66628;SDS011;53532;53.084;6.352;2023-03-01T04:31:03;61.97;;;30.37;;
66628;SDS011;53532;53.084;6.352;2023-03-01T04:33:39;50.47;;;31.57;;
66628;SDS011;53532;53.084;6.352;2023-03-01T04:36:06;71.53;;;31.40;;
66628;SDS011;53532;53.084;6.352;2023-03-01T04:38:34;53.67;;;31.33;;
66628;SDS011;53532;53.084;6.352;2023-03-01T04:41:02;51.20;;;31.63;;
66628;SDS011;53532;53.084;6.352;2023-03-01T04:43:28;63.93;;;32.73;;
66628;SDS011;53532;53.084;6.352;2023-03-01T04:45:54;61.33;;;32.77;;
66628;SDS011;53532;53.084;6.352;2023-03-01T04:48:22;78.37;;;34.60;;
66628;SDS011;53532;53.084;6.352;2023-03-01T04:50:48;118.20;;;39.63;;
66628;SDS011;53532;53.084;6.352;2023-03-01T04:53:14;84.63;;;35.67;;
66628;SDS011;53532;53.084;6.352;2023-03-01T04:55:40;63.20;;;33.67;;
66628;SDS011;53532;53.084;6.352;2023-03-01T04:58:06;54.13;;;30.03;;
66628;SDS011;53532;53.084;6.352;2023-03-01T05:00:34;54.30;;;32.07;;
66628;SDS011;53532;53.084;6.352;2023-03-01T05:03:00;75.00;;;33.20;;
66628;SDS011;53532;53.084;6.352;2023-03-01T05:05:30;56.10;;;29.97;;
66628;SDS011;53532;53.084;6.352;2023-03-01T05:07:57;67.73;;;32.70;;
66628;SDS011;53532;53.084;6.352;2023-03-01T05:10:24;69.03;;;34.07;;
66628;SDS011;53532;53.084;6.352;2023-03-01T05:12:50;59.17;;;31.10;;
66628;SDS011;53532;53.084;6.352;2023-03-01T05:15:18;138.93;;;37.40;;
66628;SDS011;53532;53.084;6.352;2023-03-01T05:17:44;58.80;;;29.20;;
66628;SDS011;53532;53.084;6.352;2023-03-01T05:20:11;36.63;;;27.83;;
66628;SDS011;53532;53.084;6.352;2023-03-01T05:22:42;39.73;;;29.27;;
66628;SDS011;53532;53.084;6.352;2023-03-01T05:25:08;37.30;;;27.70;;
66628;SDS011;53532;53.084;6.352;2023-03-01T05:27:35;32.10;;;26.47;;
66628;SDS011;53532;53.084;6.352;2023-03-01T05:30:01;33.37;;;26.27;;
66628;SDS011;53532;53.084;6.352;2023-03-01T05:32:38;31.90;;;25.80;;
66628;SDS011;53532;53.084;6.352;2023-03-01T05:35:05;30.67;;;24.20;;
66628;SDS011;53532;53.084;6.352;2023-03-01T05:37:31;34.47;;;26.23;;
66628;SDS011;53532;53.084;6.352;2023-03-01T05:39:58;34.87;;;26.23;;
66628;SDS011;53532;53.084;6.352;2023-03-01T05:42:25;30.13;;;25.57;;
66628;SDS011;53532;53.084;6.352;2023-03-01T05:44:51;29.57;;;24.30;;
66628;SDS011;53532;53.084;6.352;2023-03-01T05:47:17;29.10;;;23.37;;
66628;SDS011;53532;53.084;6.352;2023-03-01T05:49:45;27.23;;;23.27;;
66628;SDS011;53532;53.084;6.352;2023-03-01T05:52:11;26.17;;;22.50;;
66628;SDS011;53532;53.084;6.352;2023-03-01T05:54:37;26.00;;;22.50;;
66628;SDS011;53532;53.084;6.352;2023-03-01T05:57:05;26.20;;;23.27;;
66628;SDS011;53532;53.084;6.352;2023-03-01T05:59:31;27.53;;;23.60;;
66628;SDS011;53532;53.084;6.352;2023-03-01T06:01:57;26.60;;;23.03;;
66628;SDS011;53532;53.084;6.352;2023-03-01T06:04:23;28.97;;;25.07;;
66628;SDS011;53532;53.084;6.352;2023-03-01T06:06:50;28.80;;;24.87;;
66628;SDS011;53532;53.084;6.352;2023-03-01T06:09:16;34.10;;;27.77;;
66628;SDS011;53532;53.084;6.352;2023-03-01T06:11:42;27.23;;;23.80;;
66628;SDS011;53532;53.084;6.352;2023-03-01T06:14:10;27.03;;;24.10;;
66628;SDS011;53532;53.084;6.352;2023-03-01T06:16:39;31.67;;;26.43;;
66628;SDS011;53532;53.084;6.352;2023-03-01T06:19:05;64.73;;;29.70;;
66628;SDS011;53532;53.084;6.352;2023-03-01T06:21:31;68.53;;;30.00;;
66628;SDS011;53532;53.084;6.352;2023-03-01T06:23:58;41.53;;;28.63;;
66628;SDS011;53532;53.084;6.352;2023-03-01T06:26:24;38.53;;;30.60;;
66628;SDS011;53532;53.084;6.352;2023-03-01T06:28:50;73.63;;;32.43;;
66628;SDS011;53532;53.084;6.352;2023-03-01T06:31:17;40.50;;;30.30;;
66628;SDS011;53532;53.084;6.352;2023-03-01T06:33:44;76.80;;;32.97;;
66628;SDS011;53532;53.084;6.352;2023-03-01T06:36:10;56.47;;;30.27;;
66628;SDS011;53532;53.084;6.352;2023-03-01T06:38:36;36.77;;;29.03;;
66628;SDS011;53532;53.084;6.352;2023-03-01T06:41:02;38.93;;;29.73;;
66628;SDS011;53532;53.084;6.352;2023-03-01T06:43:28;38.70;;;30.33;;
66628;SDS011;53532;53.084;6.352;2023-03-01T06:45:55;36.97;;;29.10;;
66628;SDS011;53532;53.084;6.352;2023-03-01T06:48:22;36.00;;;29.10;;
66628;SDS011;53532;53.084;6.352;2023-03-01T06:50:48;38.83;;;30.23;;
66628;SDS011;53532;53.084;6.352;2023-03-01T06:53:14;36.20;;;28.47;;
66628;SDS011;53532;53.084;6.352;2023-03-01T06:55:41;37.00;;;29.07;;
66628;SDS011;53532;53.084;6.352;2023-03-01T06:58:08;35.30;;;28.97;;
66628;SDS011;53532;53.084;6.352;2023-03-01T07:00:35;36.93;;;29.17;;
66628;SDS011;53532;53.084;6.352;2023-03-01T07:03:01;36.20;;;28.67;;
66628;SDS011;53532;53.084;6.352;2023-03-01T07:05:29;34.77;;;28.17;;
66628;SDS011;53532;53.084;6.352;2023-03-01T07:07:56;36.30;;;29.07;;
66628;SDS011;53532;53.084;6.352;2023-03-01T07:10:22;37.47;;;29.57;;
66628;SDS011;53532;53.084;6.352;2023-03-01T07:12:48;35.77;;;29.30;;
66628;SDS011;53532;53.084;6.352;2023-03-01T07:15:14;40.40;;;30.07;;
66628;SDS011;53532;53.084;6.352;2023-03-01T07:17:41;41.03;;;30.23;;
66628;SDS011;53532;53.084;6.352;2023-03-01T07:20:09;42.17;;;31.30;;
66628;SDS011;53532;53.084;6.352;2023-03-01T07:22:38;44.93;;;32.87;;
66628;SDS011;53532;53.084;6.352;2023-03-01T07:25:05;47.93;;;35.27;;
66628;SDS011;53532;53.084;6.352;2023-03-01T07:27:31;50.53;;;35.90;;
66628;SDS011;53532;53.084;6.352;2023-03-01T07:29:57;53.60;;;36.40;;
66628;SDS011;53532;53.084;6.352;2023-03-01T07:32:23;49.83;;;35.67;;
66628;SDS011;53532;53.084;6.352;2023-03-01T07:34:50;56.20;;;39.23;;
66628;SDS011;53532;53.084;6.352;2023-03-01T07:37:16;54.13;;;38.80;;
66628;SDS011;53532;53.084;6.352;2023-03-01T07:39:44;58.23;;;40.10;;
66628;SDS011;53532;53.084;6.352;2023-03-01T07:42:10;58.67;;;40.90;;
66628;SDS011;53532;53.084;6.352;2023-03-01T07:44:36;61.87;;;41.17;;
66628;SDS011;53532;53.084;6.352;2023-03-01T07:47:02;65.13;;;42.03;;
66628;SDS011;53532;53.084;6.352;2023-03-01T07:49:29;63.40;;;42.20;;
66628;SDS011;53532;53.084;6.352;2023-03-01T07:51:55;63.53;;;40.97;;
66628;SDS011;53532;53.084;6.352;2023-03-01T07:54:21;67.50;;;44.03;;
66628;SDS011;53532;53.084;6.352;2023-03-01T07:56:49;65.23;;;43.70;;
66628;SDS011;53532;53.084;6.352;2023-03-01T07:59:15;73.37;;;46.80;;
66628;SDS011;53532;53.084;6.352;2023-03-01T08:01:41;71.87;;;44.83;;
66628;SDS011;53532;53.084;6.352;2023-03-01T08:04:07;69.37;;;45.53;;
66628;SDS011;53532;53.084;6.352;2023-03-01T08:06:34;77.07;;;47.33;;
66628;SDS011;53532;53.084;6.352;2023-03-01T08:09:00;79.57;;;48.53;;
66628;SDS011;53532;53.084;6.352;2023-03-01T08:11:27;78.50;;;46.60;;
66628;SDS011;53532;53.084;6.352;2023-03-01T08:13:55;79.77;;;49.30;;
66628;SDS011;53532;53.084;6.352;2023-03-01T08:16:21;85.20;;;51.93;;
66628;SDS011;53532;53.084;6.352;2023-03-01T08:18:47;80.27;;;50.17;;
66628;SDS011;53532;53.084;6.352;2023-03-01T08:21:14;80.10;;;51.20;;
66628;SDS011;53532;53.084;6.352;2023-03-01T08:23:41;77.73;;;49.53;;
66628;SDS011;53532;53.084;6.352;2023-03-01T08:26:08;81.20;;;51.43;;
66628;SDS011;53532;53.084;6.352;2023-03-01T08:28:34;80.00;;;51.40;;
66628;SDS011;53532;53.084;6.352;2023-03-01T08:31:02;80.87;;;51.00;;
66628;SDS011;53532;53.084;6.352;2023-03-01T08:33:28;79.03;;;51.13;;
66628;SDS011;53532;53.084;6.352;2023-03-01T08:36:01;85.23;;;51.03;;
66628;SDS011;53532;53.084;6.352;2023-03-01T08:38:27;82.77;;;51.07;;
66628;SDS011;53532;53.084;6.352;2023-03-01T08:40:54;76.57;;;49.13;;
66628;SDS011;53532;53.084;6.352;2023-03-01T08:43:20;92.30;;;50.93;;
66628;SDS011;53532;53.084;6.352;2023-03-01T08:45:49;71.20;;;46.03;;
66628;SDS011;53532;53.084;6.352;2023-03-01T08:48:17;78.23;;;46.83;;
66628;SDS011;53532;53.084;6.352;2023-03-01T08:50:43;74.53;;;47.63;;
66628;SDS011;53532;53.084;6.352;2023-03-01T08:53:09;79.10;;;48.47;;
66628;SDS011;53532;53.084;6.352;2023-03-01T08:55:36;72.50;;;48.07;;
66628;SDS011;53532;53.084;6.352;2023-03-01T08:58:02;88.63;;;52.57;;
66628;SDS011;53532;53.084;6.352;2023-03-01T09:00:28;74.80;;;48.40;;
66628;SDS011;53532;53.084;6.352;2023-03-01T09:02:54;78.03;;;49.20;;
66628;SDS011;53532;53.084;6.352;2023-03-01T09:05:22;81.57;;;51.03;;
66628;SDS011;53532;53.084;6.352;2023-03-01T09:07:48;82.90;;;51.60;;
66628;SDS011;53532;53.084;6.352;2023-03-01T09:10:14;74.20;;;48.70;;
66628;SDS011;53532;53.084;6.352;2023-03-01T09:12:41;72.10;;;49.43;;
66628;SDS011;53532;53.084;6.352;2023-03-01T09:15:07;70.50;;;46.13;;
66628;SDS011;53532;53.084;6.352;2023-03-01T09:17:34;63.40;;;43.83;;
66628;SDS011;53532;53.084;6.352;2023-03-01T09:20:00;62.47;;;42.50;;
66628;SDS011;53532;53.084;6.352;2023-03-01T09:22:27;57.77;;;40.93;;
66628;SDS011;53532;53.084;6.352;2023-03-01T09:24:53;61.80;;;41.50;;
66628;SDS011;53532;53.084;6.352;2023-03-01T09:27:21;58.03;;;39.90;;
66628;SDS011;53532;53.084;6.352;2023-03-01T09:29:47;52.47;;;38.73;;
66628;SDS011;53532;53.084;6.352;2023-03-01T09:32:13;48.57;;;37.57;;
66628;SDS011;53532;53.084;6.352;2023-03-01T09:34:40;48.80;;;36.50;;
66628;SDS011;53532;53.084;6.352;2023-03-01T09:37:27;50.17;;;37.47;;
66628;SDS011;53532;53.084;6.352;2023-03-01T09:39:53;49.97;;;36.80;;
66628;SDS011;53532;53.084;6.352;2023-03-01T09:42:19;49.50;;;36.17;;
66628;SDS011;53532;53.084;6.352;2023-03-01T09:44:46;45.70;;;35.77;;
66628;SDS011;53532;53.084;6.352;2023-03-01T09:47:15;47.37;;;34.93;;
66628;SDS011;53532;53.084;6.352;2023-03-01T09:49:42;43.73;;;32.87;;
66628;SDS011;53532;53.084;6.352;2023-03-01T09:52:19;43.50;;;33.10;;
66628;SDS011;53532;53.084;6.352;2023-03-01T09:54:48;44.10;;;33.33;;
66628;SDS011;53532;53.084;6.352;2023-03-01T09:57:17;47.30;;;35.00;;
66628;SDS011;53532;53.084;6.352;2023-03-01T09:59:57;44.90;;;34.37;;
66628;SDS011;53532;53.084;6.352;2023-03-01T10:02:27;42.20;;;31.63;;
66628;SDS011;53532;53.084;6.352;2023-03-01T10:04:55;37.23;;;27.17;;
66628;SDS011;53532;53.084;6.352;2023-03-01T10:07:30;36.67;;;27.60;;
66628;SDS011;53532;53.084;6.352;2023-03-01T10:10:00;34.47;;;26.10;;
66628;SDS011;53532;53.084;6.352;2023-03-01T10:12:31;32.53;;;24.80;;
66628;SDS011;53532;53.084;6.352;2023-03-01T10:15:00;28.30;;;22.03;;
66628;SDS011;53532;53.084;6.352;2023-03-01T10:17:30;27.60;;;21.80;;
66628;SDS011;53532;53.084;6.352;2023-03-01T10:20:05;28.53;;;21.77;;
66628;SDS011;53532;53.084;6.352;2023-03-01T10:22:36;29.50;;;22.30;;
66628;SDS011;53532;53.084;6.352;2023-03-01T10:25:04;29.53;;;23.13;;
66628;SDS011;53532;53.084;6.352;2023-03-01T10:27:34;28.50;;;22.00;;
66628;SDS011;53532;53.084;6.352;2023-03-01T10:30:04;28.23;;;22.33;;
66628;SDS011;53532;53.084;6.352;2023-03-01T10:32:32;30.40;;;22.63;;
66628;SDS011;53532;53.084;6.352;2023-03-01T10:34:58;29.10;;;22.67;;
66628;SDS011;53532;53.084;6.352;2023-03-01T10:37:24;28.20;;;21.40;;
66628;SDS011;53532;53.084;6.352;2023-03-01T10:39:56;26.53;;;20.40;;
66628;SDS011;53532;53.084;6.352;2023-03-01T10:42:26;22.00;;;17.97;;
66628;SDS011;53532;53.084;6.352;2023-03-01T10:44:53;21.53;;;16.37;;
66628;SDS011;53532;53.084;6.352;2023-03-01T10:47:22;25.27;;;19.80;;
66628;SDS011;53532;53.084;6.352;2023-03-01T10:52:35;23.60;;;18.07;;
66628;SDS011;53532;53.084;6.352;2023-03-01T10:55:03;22.00;;;17.47;;
66628;SDS011;53532;53.084;6.352;2023-03-01T10:57:38;24.47;;;19.27;;
66628;SDS011;53532;53.084;6.352;2023-03-01T11:03:03;23.65;;;19.40;;
66628;SDS011;53532;53.084;6.352;2023-03-01T11:05:29;25.10;;;19.73;;
66628;SDS011;53532;53.084;6.352;2023-03-01T11:07:59;25.92;;;19.77;;
66628;SDS011;53532;53.084;6.352;2023-03-01T11:10:26;22.20;;;18.05;;
66628;SDS011;53532;53.084;6.352;2023-03-01T11:12:54;23.45;;;18.48;;
66628;SDS011;53532;53.084;6.352;2023-03-01T11:15:31;24.17;;;18.93;;
66628;SDS011;53532;53.084;6.352;2023-03-01T11:17:57;24.80;;;18.97;;
66628;SDS011;53532;53.084;6.352;2023-03-01T11:20:27;22.43;;;18.20;;
66628;SDS011;53532;53.084;6.352;2023-03-01T11:22:55;24.73;;;18.85;;
66628;SDS011;53532;53.084;6.352;2023-03-01T11:25:24;23.38;;;18.45;;
66628;SDS011;53532;53.084;6.352;2023-03-01T11:27:51;21.08;;;16.67;;
66628;SDS011;53532;53.084;6.352;2023-03-01T11:30:20;23.63;;;19.02;;
66628;SDS011;53532;53.084;6.352;2023-03-01T11:32:48;24.05;;;20.02;;
66628;SDS011;53532;53.084;6.352;2023-03-01T11:35:17;24.05;;;17.90;;
66628;SDS011;53532;53.084;6.352;2023-03-01T11:37:44;22.80;;;17.10;;
66628;SDS011;53532;53.084;6.352;2023-03-01T11:40:14;22.55;;;17.70;;
66628;SDS011;53532;53.084;6.352;2023-03-01T11:42:45;22.17;;;16.83;;
66628;SDS011;53532;53.084;6.352;2023-03-01T11:45:12;22.05;;;16.35;;
66628;SDS011;53532;53.084;6.352;2023-03-01T11:47:43;23.70;;;17.48;;
66628;SDS011;53532;53.084;6.352;2023-03-01T11:50:19;22.92;;;17.20;;
66628;SDS011;53532;53.084;6.352;2023-03-01T11:52:53;21.95;;;16.63;;
66628;SDS011;53532;53.084;6.352;2023-03-01T11:58:09;20.63;;;15.38;;
66628;SDS011;53532;53.084;6.352;2023-03-01T12:00:42;22.38;;;16.95;;
66628;SDS011;53532;53.084;6.352;2023-03-01T12:06:04;25.13;;;17.40;;
66628;SDS011;53532;53.084;6.352;2023-03-01T12:08:33;21.85;;;17.70;;
66628;SDS011;53532;53.084;6.352;2023-03-01T12:11:03;25.38;;;18.10;;
66628;SDS011;53532;53.084;6.352;2023-03-01T12:18:50;22.02;;;16.42;;
66628;SDS011;53532;53.084;6.352;2023-03-01T12:21:23;21.63;;;15.38;;
66628;SDS011;53532;53.084;6.352;2023-03-01T12:24:06;23.10;;;15.77;;
66628;SDS011;53532;53.084;6.352;2023-03-01T12:26:33;19.67;;;15.38;;
66628;SDS011;53532;53.084;6.352;2023-03-01T12:29:02;23.25;;;16.10;;
66628;SDS011;53532;53.084;6.352;2023-03-01T12:31:39;22.55;;;17.65;;
66628;SDS011;53532;53.084;6.352;2023-03-01T12:34:14;22.58;;;16.88;;
66628;SDS011;53532;53.084;6.352;2023-03-01T12:36:48;23.00;;;17.63;;
66628;SDS011;53532;53.084;6.352;2023-03-01T12:39:24;22.00;;;16.70;;
66628;SDS011;53532;53.084;6.352;2023-03-01T12:41:57;23.52;;;17.98;;
66628;SDS011;53532;53.084;6.352;2023-03-01T12:44:35;21.33;;;16.70;;
66628;SDS011;53532;53.084;6.352;2023-03-01T12:47:10;22.10;;;16.95;;
66628;SDS011;53532;53.084;6.352;2023-03-01T12:49:38;25.23;;;19.08;;
66628;SDS011;53532;53.084;6.352;2023-03-01T12:52:10;21.40;;;17.17;;
66628;SDS011;53532;53.084;6.352;2023-03-01T12:54:37;26.17;;;17.80;;
66628;SDS011;53532;53.084;6.352;2023-03-01T12:57:06;23.25;;;18.52;;
66628;SDS011;53532;53.084;6.352;2023-03-01T12:59:36;22.98;;;18.42;;
66628;SDS011;53532;53.084;6.352;2023-03-01T13:02:05;24.45;;;18.55;;
66628;SDS011;53532;53.084;6.352;2023-03-01T13:04:38;22.25;;;18.33;;
66628;SDS011;53532;53.084;6.352;2023-03-01T13:07:13;21.00;;;17.42;;
66628;SDS011;53532;53.084;6.352;2023-03-01T13:09:43;22.30;;;17.92;;
66628;SDS011;53532;53.084;6.352;2023-03-01T13:14:57;24.50;;;19.35;;
66628;SDS011;53532;53.084;6.352;2023-03-01T13:17:31;23.48;;;19.25;;
66628;SDS011;53532;53.084;6.352;2023-03-01T13:19:58;26.70;;;20.55;;
66628;SDS011;53532;53.084;6.352;2023-03-01T13:22:26;25.05;;;19.83;;
66628;SDS011;53532;53.084;6.352;2023-03-01T13:25:00;24.58;;;20.05;;
66628;SDS011;53532;53.084;6.352;2023-03-01T13:27:26;26.10;;;19.45;;
66628;SDS011;53532;53.084;6.352;2023-03-01T13:29:55;23.15;;;18.45;;
66628;SDS011;53532;53.084;6.352;2023-03-01T13:32:22;21.13;;;16.85;;
66628;SDS011;53532;53.084;6.352;2023-03-01T13:34:49;22.80;;;17.83;;
66628;SDS011;53532;53.084;6.352;2023-03-01T13:37:20;22.45;;;17.40;;
66628;SDS011;53532;53.084;6.352;2023-03-01T13:39:47;23.35;;;17.95;;
66628;SDS011;53532;53.084;6.352;2023-03-01T13:44:59;22.92;;;17.48;;
66628;SDS011;53532;53.084;6.352;2023-03-01T13:47:26;23.38;;;17.80;;
66628;SDS011;53532;53.084;6.352;2023-03-01T13:49:53;23.83;;;17.80;;
66628;SDS011;53532;53.084;6.352;2023-03-01T13:52:36;24.00;;;18.25;;
66628;SDS011;53532;53.084;6.352;2023-03-01T13:55:13;22.10;;;17.13;;
66628;SDS011;53532;53.084;6.352;2023-03-01T13:57:43;24.27;;;17.65;;
66628;SDS011;53532;53.084;6.352;2023-03-01T14:00:24;22.48;;;17.30;;
66628;SDS011;53532;53.084;6.352;2023-03-01T14:02:59;22.35;;;17.10;;
66628;SDS011;53532;53.084;6.352;2023-03-01T14:05:25;22.40;;;16.35;;
66628;SDS011;53532;53.084;6.352;2023-03-01T14:07:51;22.42;;;16.73;;
66628;SDS011;53532;53.084;6.352;2023-03-01T14:10:18;23.10;;;17.80;;
66628;SDS011;53532;53.084;6.352;2023-03-01T14:12:45;24.70;;;17.73;;
66628;SDS011;53532;53.084;6.352;2023-03-01T14:15:15;24.73;;;18.42;;
66628;SDS011;53532;53.084;6.352;2023-03-01T14:20:30;22.25;;;16.90;;
66628;SDS011;53532;53.084;6.352;2023-03-01T14:22:57;21.20;;;16.90;;
66628;SDS011;53532;53.084;6.352;2023-03-01T14:25:29;23.50;;;17.77;;
66628;SDS011;53532;53.084;6.352;2023-03-01T14:27:58;24.10;;;18.42;;
66628;SDS011;53532;53.084;6.352;2023-03-01T14:30:25;23.70;;;17.58;;
66628;SDS011;53532;53.084;6.352;2023-03-01T14:32:53;22.02;;;17.05;;
66628;SDS011;53532;53.084;6.352;2023-03-01T14:35:20;22.70;;;16.60;;
66628;SDS011;53532;53.084;6.352;2023-03-01T14:37:46;21.02;;;16.55;;
66628;SDS011;53532;53.084;6.352;2023-03-01T14:40:19;20.88;;;16.35;;
66628;SDS011;53532;53.084;6.352;2023-03-01T14:42:47;23.42;;;18.17;;
66628;SDS011;53532;53.084;6.352;2023-03-01T14:45:13;21.95;;;16.98;;
66628;SDS011;53532;53.084;6.352;2023-03-01T14:47:40;23.15;;;17.65;;
66628;SDS011;53532;53.084;6.352;2023-03-01T14:50:07;22.27;;;17.17;;